Flight Track Log - Related Links

Times and Time Zones

All times are in EDT time to prevent confusion due to time zone crossing. See the CSN6818 flight status page for this flight to view local times or setup timezone preferences in your user account.

Time Position Orientation Groundspeed Altitude Reporting Facility
EDT Latitude Longitude Course Direction KTS MPH feet Rate Location/Type
Thu 11:29:00 PM 40.9582 83.9451 38° Northeast  Level Estimated
Thu 11:30:00 PM 41.0783 84.0802 40° Northeast  Level Estimated
Thu 11:31:00 PM 41.1982 84.2158 40° Northeast  Level Estimated
Thu 11:32:00 PM 41.3180 84.3519 40° Northeast  Level Estimated
Thu 11:33:00 PM 41.4376 84.4884 41° Northeast  Level Estimated
Thu 11:34:00 PM 41.5571 84.6255 41° Northeast  Level Estimated
Thu 11:35:00 PM 41.6764 84.7631 41° Northeast  Level Estimated
Thu 11:36:00 PM 41.7955 84.9012 41° Northeast  Level Estimated
Thu 11:37:00 PM 41.9145 85.0398 41° Northeast  Level Estimated
Thu 11:38:00 PM 42.0333 85.1789 41° Northeast  Level Estimated
Thu 11:39:00 PM 42.1519 85.3186 41° Northeast  Level Estimated
Thu 11:40:00 PM 42.2704 85.4587 41° Northeast  Level Estimated
Thu 11:41:00 PM 42.3886 85.5994 41° Northeast  Level Estimated
Thu 11:42:00 PM 42.5067 85.7407 41° Northeast  Level Estimated
Thu 11:43:00 PM 42.6247 85.8824 41° Northeast  Level Estimated
Thu 11:44:00 PM 42.7424 86.0247 42° Northeast  Level Estimated
Thu 11:45:00 PM 42.8600 86.1676 42° Northeast  Level Estimated
Thu 11:46:00 PM 42.9774 86.3110 42° Northeast  Level Estimated
Thu 11:47:00 PM 43.0947 86.4549 42° Northeast  Level Estimated
Thu 11:48:00 PM 43.2117 86.5994 42° Northeast  Level Estimated
Thu 11:49:00 PM 43.3286 86.7444 42° Northeast  Level Estimated
Thu 11:50:00 PM 43.4453 86.8900 42° Northeast  Level Estimated
Thu 11:51:00 PM 43.5617 87.0362 42° Northeast  Level Estimated
Thu 11:52:00 PM 43.6781 87.1829 42° Northeast  Level Estimated
Thu 11:53:00 PM 43.7942 87.3302 42° Northeast  Level Estimated
Thu 11:54:00 PM 43.9071 87.4742 43° Northeast  Level Estimated
Thu 11:55:00 PM 43.9071 87.4742 144° Southeast  Level Estimated
Thu 11:56:00 PM 43.9071 87.4742 144° Southeast  Level Estimated
Thu 11:57:00 PM 43.9071 87.4742 144° Southeast  Level Estimated
Thu 11:58:00 PM 43.9071 87.4742 144° Southeast  Level Estimated
Thu 11:59:00 PM 43.9071 87.4742 144° Southeast  Level Estimated
Fri 12:00:00 AM 43.9071 87.4742 144° Southeast  Level Estimated
Fri 12:01:00 AM 43.9071 87.4742 144° Southeast  Level Estimated
Fri 12:02:00 AM 43.9071 87.4742 144° Southeast  Level Estimated
Fri 12:03:00 AM 43.9071 87.4742 144° Southeast  Level Estimated
Fri 12:04:00 AM 43.9071 87.4742 144° Southeast  Level Estimated
Fri 12:05:00 AM 43.9071 87.4742 144° Southeast  Level Estimated
Fri 12:06:00 AM 43.9071 87.4742 144° Southeast  Level Estimated
Fri 12:07:00 AM 43.9071 87.4742 144° Southeast  Level Estimated
Fri 12:08:00 AM 43.9071 87.4742 144° Southeast  Level Estimated
Fri 12:09:00 AM 43.9071 87.4742 144° Southeast  Level Estimated
Fri 12:10:00 AM 43.9071 87.4742 144° Southeast  Level Estimated

Login

Don't have an account? Register now (free) for customized features, flight alerts, and more!